Time;durP1;ratioP1;P1;durP2;ratioP2;P2;SDS_P1;SDS_P2;PMS_P1;PMS_P2;Temp;Humidity;BMP_temperature;BMP_pressure;BME280_temperature;BME280_humidity;BME280_pressure;Samples;Min_cycle;Max_cycle;Signal;HPM_P1;HPM_P2
2024/01/10 00:00:12;;;;;;;26.90;20.03;;;-5.00;55.70;;;;;;5070758;28;20200;-61
2024/01/10 00:02:38;;;;;;;32.33;20.27;;;-5.20;56.10;;;;;;5070791;28;20217;-60
2024/01/10 00:05:05;;;;;;;27.80;19.43;;;-5.10;56.80;;;;;;5068465;28;20236;-60
2024/01/10 00:07:31;;;;;;;25.10;18.73;;;-5.10;56.80;;;;;;5071048;28;20221;-60
2024/01/10 00:09:59;;;;;;;28.60;19.87;;;-5.10;56.80;;;;;;5068131;28;20633;-60
2024/01/10 00:12:26;;;;;;;29.27;18.40;;;-5.00;56.80;;;;;;5069193;28;20211;-60
2024/01/10 00:14:52;;;;;;;30.30;19.40;;;-5.00;56.80;;;;;;5068611;28;20212;-57
2024/01/10 00:17:19;;;;;;;34.17;21.07;;;-5.00;57.20;;;;;;5070176;28;20660;-60
2024/01/10 00:19:45;;;;;;;32.57;21.07;;;-4.90;57.80;;;;;;5066537;28;20214;-60
2024/01/10 00:22:12;;;;;;;29.27;20.23;;;-4.80;58.40;;;;;;5065016;28;20267;-57
2024/01/10 00:24:38;;;;;;;30.60;20.73;;;-4.70;58.20;;;;;;5068188;28;20205;-60
2024/01/10 00:27:05;;;;;;;34.40;21.37;;;-4.80;59.40;;;;;;5069768;28;20206;-58
2024/01/10 00:29:32;;;;;;;27.23;19.13;;;-4.80;60.70;;;;;;5071202;28;20236;-60
2024/01/10 00:31:59;;;;;;;31.83;19.33;;;-4.70;60.60;;;;;;5073815;28;20641;-59
2024/01/10 00:34:26;;;;;;;32.00;20.20;;;-4.70;60.70;;;;;;5075022;28;20224;-58
2024/01/10 00:36:53;;;;;;;33.67;20.97;;;-4.70;60.60;;;;;;5074435;28;20614;-60
2024/01/10 00:39:19;;;;;;;33.60;20.00;;;-4.90;61.40;;;;;;5064324;28;20624;-60
2024/01/10 00:41:46;;;;;;;34.63;21.10;;;-4.90;62.40;;;;;;5072698;28;20246;-60
2024/01/10 00:44:12;;;;;;;32.43;19.90;;;-4.90;62.30;;;;;;5073928;28;20213;-60
2024/01/10 00:46:39;;;;;;;33.77;21.70;;;-4.80;62.60;;;;;;5073649;28;20298;-59
2024/01/10 00:49:05;;;;;;;35.77;21.70;;;-4.70;62.30;;;;;;5073766;28;20228;-59
2024/01/10 00:51:32;;;;;;;33.83;20.83;;;-4.70;62.30;;;;;;5073406;28;20667;-59
2024/01/10 00:53:58;;;;;;;32.33;20.57;;;-4.70;62.20;;;;;;5073445;28;20205;-59
2024/01/10 00:56:25;;;;;;;30.70;20.17;;;-4.60;62.10;;;;;;5070512;28;20727;-58
2024/01/10 00:58:55;;;;;;;32.87;20.93;;;-4.50;61.40;;;;;;5074370;28;20250;-59
2024/01/10 01:01:22;;;;;;;33.97;20.93;;;-4.60;60.70;;;;;;5073875;28;20234;-59
2024/01/10 01:03:49;;;;;;;38.73;22.33;;;-4.50;61.20;;;;;;5074305;28;20275;-60
2024/01/10 01:06:15;;;;;;;32.43;20.73;;;-4.60;61.00;;;;;;5074093;28;20278;-59
2024/01/10 01:08:42;;;;;;;33.63;20.33;;;-4.60;61.60;;;;;;5073995;28;20263;-60
2024/01/10 01:11:09;;;;;;;34.03;20.90;;;-4.60;61.40;;;;;;5074454;28;20209;-58
2024/01/10 01:13:35;;;;;;;34.37;21.13;;;-4.50;61.40;;;;;;5074169;28;20254;-59
2024/01/10 01:16:02;;;;;;;35.87;22.57;;;-4.80;62.50;;;;;;5073982;28;20659;-60
2024/01/10 01:18:28;;;;;;;32.90;21.47;;;-4.70;63.10;;;;;;5074141;28;20193;-60
2024/01/10 01:20:55;;;;;;;35.53;23.40;;;-4.70;62.80;;;;;;5073929;28;20579;-60
2024/01/10 01:23:21;;;;;;;31.83;20.93;;;-4.70;62.50;;;;;;5074005;28;20213;-60
2024/01/10 01:25:48;;;;;;;36.50;22.50;;;-4.60;62.60;;;;;;5066146;28;20270;-60
2024/01/10 01:28:14;;;;;;;36.23;21.97;;;-4.60;62.40;;;;;;5073480;28;20213;-59
2024/01/10 01:30:41;;;;;;;36.73;21.33;;;-4.70;62.50;;;;;;5073434;28;20632;-59
2024/01/10 01:33:07;;;;;;;34.07;20.97;;;-4.80;62.90;;;;;;5073800;28;20209;-59
2024/01/10 01:35:34;;;;;;;33.03;20.00;;;-4.70;62.50;;;;;;5073365;28;20569;-60
2024/01/10 01:38:00;;;;;;;37.77;21.63;;;-4.70;62.80;;;;;;5073490;28;20243;-60
2024/01/10 01:40:27;;;;;;;34.37;21.60;;;-4.50;63.00;;;;;;5073289;28;20272;-58
2024/01/10 01:42:54;;;;;;;34.43;19.87;;;-4.40;61.80;;;;;;5073917;28;20209;-58
2024/01/10 01:45:20;;;;;;;35.03;21.60;;;-4.50;61.10;;;;;;5071824;28;20318;-60
2024/01/10 01:47:47;;;;;;;37.30;21.37;;;-4.60;61.70;;;;;;5067298;28;20225;-58
2024/01/10 01:50:13;;;;;;;37.63;22.87;;;-4.60;62.50;;;;;;5073853;28;20724;-59
2024/01/10 01:52:40;;;;;;;34.87;22.17;;;-4.60;62.60;;;;;;5073298;28;20243;-60
2024/01/10 01:55:07;;;;;;;34.63;21.57;;;-4.60;62.50;;;;;;5073683;28;20638;-60
2024/01/10 01:57:33;;;;;;;35.60;21.83;;;-4.70;62.80;;;;;;5073097;28;20205;-60
2024/01/10 02:00:00;;;;;;;34.13;21.37;;;-4.60;63.00;;;;;;5073566;28;20664;-60
2024/01/10 02:02:26;;;;;;;38.20;22.47;;;-4.60;63.00;;;;;;5073024;28;20664;-59
2024/01/10 02:04:53;;;;;;;36.37;21.87;;;-4.60;62.90;;;;;;5066910;28;20213;-59
2024/01/10 02:07:19;;;;;;;37.57;21.23;;;-4.60;62.90;;;;;;5074042;28;20278;-59
2024/01/10 02:09:46;;;;;;;37.10;22.17;;;-4.60;62.90;;;;;;5072945;28;20267;-59
2024/01/10 02:12:12;;;;;;;37.27;20.53;;;-4.70;62.70;;;;;;5073361;28;20205;-59
2024/01/10 02:14:39;;;;;;;34.23;21.40;;;-4.70;63.00;;;;;;5072910;28;20633;-59
2024/01/10 02:17:05;;;;;;;35.60;20.23;;;-4.80;63.00;;;;;;5072206;28;20277;-58
2024/01/10 02:19:32;;;;;;;39.67;22.77;;;-4.70;63.10;;;;;;5072587;28;20197;-59
2024/01/10 02:21:58;;;;;;;34.90;20.87;;;-4.70;63.20;;;;;;5066089;28;20215;-59
2024/01/10 02:24:25;;;;;;;36.87;22.20;;;-4.60;63.30;;;;;;5072981;28;20274;-59
2024/01/10 02:26:51;;;;;;;35.57;21.17;;;-4.70;63.90;;;;;;5073077;28;20229;-58
2024/01/10 02:29:18;;;;;;;40.97;21.57;;;-4.50;63.50;;;;;;5073055;28;20217;-57
2024/01/10 02:31:45;;;;;;;34.90;21.73;;;-4.70;62.80;;;;;;5072893;28;20755;-57
2024/01/10 02:34:11;;;;;;;33.17;21.73;;;-4.50;63.30;;;;;;5073187;28;20733;-60
2024/01/10 02:36:38;;;;;;;37.33;22.53;;;-4.50;62.30;;;;;;5073130;28;20225;-59
2024/01/10 02:39:04;;;;;;;37.37;21.07;;;-4.60;62.40;;;;;;5065584;28;20204;-59
2024/01/10 02:41:31;;;;;;;36.63;21.27;;;-4.60;62.20;;;;;;5074047;28;20254;-59
2024/01/10 02:43:59;;;;;;;35.73;21.40;;;-4.60;62.80;;;;;;5073399;28;20209;-58
2024/01/10 02:46:27;;;;;;;36.73;22.73;;;-4.60;61.80;;;;;;5072348;28;20232;-60
2024/01/10 02:48:53;;;;;;;37.07;21.57;;;-4.60;62.20;;;;;;5072654;28;20232;-60
2024/01/10 02:51:21;;;;;;;32.90;20.10;;;-4.60;62.30;;;;;;5071714;28;20245;-60
2024/01/10 02:53:47;;;;;;;35.43;21.87;;;-4.60;62.50;;;;;;5071363;28;20557;-59
2024/01/10 02:56:14;;;;;;;34.37;20.73;;;-4.60;62.50;;;;;;5071671;28;20286;-60
2024/01/10 02:58:40;;;;;;;32.73;20.10;;;-4.60;62.70;;;;;;5071829;28;20201;-59
2024/01/10 03:01:09;;;;;;;34.63;21.87;;;-4.70;62.80;;;;;;5071783;28;20282;-58
2024/01/10 03:03:35;;;;;;;32.30;22.13;;;-4.60;62.60;;;;;;5071967;28;20207;-60
2024/01/10 03:06:02;;;;;;;35.73;21.80;;;-4.50;62.60;;;;;;5072156;28;20232;-56
2024/01/10 03:08:28;;;;;;;31.43;20.20;;;-4.50;62.40;;;;;;5071858;28;20225;-57
2024/01/10 03:10:55;;;;;;;31.10;19.70;;;-4.40;61.90;;;;;;5071716;28;20252;-60
2024/01/10 03:13:21;;;;;;;32.20;21.33;;;-4.40;61.90;;;;;;5064585;28;20203;-59
2024/01/10 03:15:48;;;;;;;36.87;22.50;;;-4.50;62.00;;;;;;5063694;28;20229;-60
2024/01/10 03:18:14;;;;;;;35.80;22.03;;;-4.60;62.50;;;;;;5069308;28;20209;-59
2024/01/10 03:20:41;;;;;;;35.97;21.30;;;-4.60;62.80;;;;;;5071925;28;20205;-60
2024/01/10 03:23:07;;;;;;;38.17;21.77;;;-4.60;63.60;;;;;;5071617;28;20644;-59
2024/01/10 03:25:34;;;;;;;37.37;22.30;;;-4.60;63.40;;;;;;5071334;28;20232;-59
2024/01/10 03:28:00;;;;;;;40.30;21.83;;;-4.60;63.30;;;;;;5067636;28;20251;-58
2024/01/10 03:30:27;;;;;;;36.63;22.73;;;-4.60;63.50;;;;;;5069830;28;20702;-58
2024/01/10 03:32:53;;;;;;;30.47;20.67;;;-4.70;63.10;;;;;;5071321;28;20221;-60
2024/01/10 03:35:20;;;;;;;34.70;21.83;;;-4.50;62.80;;;;;;5071705;28;20229;-60
2024/01/10 03:37:46;;;;;;;32.70;21.57;;;-4.80;62.40;;;;;;5071583;28;20259;-57
2024/01/10 03:40:13;;;;;;;33.33;22.03;;;-4.70;62.50;;;;;;5071567;28;20254;-60
2024/01/10 03:42:39;;;;;;;33.30;21.13;;;-4.60;62.50;;;;;;5071009;28;20589;-59
2024/01/10 03:45:06;;;;;;;33.50;20.93;;;-4.40;62.10;;;;;;5071369;28;20224;-59
2024/01/10 03:47:32;;;;;;;39.43;22.60;;;-4.50;62.30;;;;;;5064474;28;20208;-60
2024/01/10 03:49:59;;;;;;;37.40;22.63;;;-4.60;62.50;;;;;;5072001;28;20290;-59
2024/01/10 03:52:25;;;;;;;35.57;20.50;;;-4.50;62.80;;;;;;5070918;28;20255;-58
2024/01/10 03:54:52;;;;;;;33.67;21.77;;;-4.40;61.90;;;;;;5071419;28;20278;-58
2024/01/10 03:57:18;;;;;;;38.53;23.00;;;-4.60;63.00;;;;;;5071344;28;20748;-60
2024/01/10 03:59:45;;;;;;;39.33;22.30;;;-4.60;63.20;;;;;;5071528;28;20631;-59
2024/01/10 04:02:12;;;;;;;34.53;21.17;;;-4.50;63.30;;;;;;5071336;28;20201;-60
2024/01/10 04:04:38;;;;;;;39.23;23.37;;;-4.40;62.50;;;;;;5072219;28;20236;-60
2024/01/10 04:07:05;;;;;;;36.53;21.57;;;-4.40;62.20;;;;;;5074350;28;20229;-59
2024/01/10 04:09:31;;;;;;;37.63;21.97;;;-4.30;61.80;;;;;;5075201;28;20631;-60
2024/01/10 04:11:58;;;;;;;36.13;22.03;;;-4.40;62.30;;;;;;5075501;28;20205;-60
2024/01/10 04:14:24;;;;;;;36.97;21.47;;;-4.40;62.70;;;;;;5075160;28;20209;-59
2024/01/10 04:16:51;;;;;;;37.20;24.07;;;-4.40;62.70;;;;;;5075391;28;20228;-58
2024/01/10 04:19:17;;;;;;;34.80;22.13;;;-4.40;62.40;;;;;;5071177;28;20725;-59
2024/01/10 04:21:44;;;;;;;38.30;21.90;;;-4.50;62.70;;;;;;5068299;28;20288;-59
2024/01/10 04:24:11;;;;;;;34.00;21.00;;;-4.40;63.50;;;;;;5074740;28;20683;-59
2024/01/10 04:26:37;;;;;;;37.97;23.17;;;-4.40;62.50;;;;;;5074849;28;20221;-59
2024/01/10 04:29:04;;;;;;;35.07;20.43;;;-4.40;62.70;;;;;;5075170;28;20286;-59
2024/01/10 04:31:30;;;;;;;38.30;20.70;;;-4.50;62.70;;;;;;5075088;28;20213;-58
2024/01/10 04:33:57;;;;;;;34.27;20.97;;;-4.50;62.60;;;;;;5074797;28;20209;-59
2024/01/10 04:36:23;;;;;;;37.37;20.83;;;-4.50;62.80;;;;;;5074926;28;20707;-59
2024/01/10 04:38:50;;;;;;;29.97;21.23;;;-4.50;62.90;;;;;;5068054;28;20580;-57
2024/01/10 04:41:16;;;;;;;34.27;20.77;;;-4.40;63.00;;;;;;5075085;28;20209;-58
2024/01/10 04:43:43;;;;;;;34.57;19.63;;;-4.40;63.30;;;;;;5074724;28;20213;-58
2024/01/10 04:46:10;;;;;;;38.60;22.10;;;-4.50;62.60;;;;;;5075216;28;20687;-58
2024/01/10 04:48:37;;;;;;;44.50;23.37;;;-4.50;63.00;;;;;;5074842;28;20225;-59
2024/01/10 04:51:03;;;;;;;34.00;20.83;;;-4.50;63.40;;;;;;5074739;28;20590;-60
2024/01/10 04:53:30;;;;;;;34.13;21.67;;;-4.50;62.90;;;;;;5074237;28;20231;-58
2024/01/10 04:55:56;;;;;;;34.53;20.53;;;-4.50;62.80;;;;;;5074199;28;20236;-60
2024/01/10 04:58:24;;;;;;;34.50;20.90;;;-4.40;61.90;;;;;;5074862;28;20753;-59
2024/01/10 05:00:50;;;;;;;34.20;20.93;;;-4.40;61.70;;;;;;5074797;28;20251;-56
2024/01/10 05:03:17;;;;;;;34.93;20.80;;;-4.30;61.70;;;;;;5074903;28;20671;-59
2024/01/10 05:05:43;;;;;;;35.10;21.53;;;-4.30;62.10;;;;;;5074531;28;20221;-57
2024/01/10 05:08:10;;;;;;;36.60;22.33;;;-4.30;62.80;;;;;;5078899;28;20579;-59
2024/01/10 05:10:36;;;;;;;32.80;19.87;;;-4.30;62.10;;;;;;5075006;28;20213;-59
2024/01/10 05:13:03;;;;;;;35.50;21.07;;;-4.30;62.00;;;;;;5069812;28;20259;-55
2024/01/10 05:15:29;;;;;;;33.23;22.23;;;-4.50;62.70;;;;;;5074298;28;20688;-59
2024/01/10 05:17:56;;;;;;;36.33;21.23;;;-4.40;63.20;;;;;;5073718;28;20205;-57
2024/01/10 05:20:22;;;;;;;33.13;20.47;;;-4.40;62.80;;;;;;5074159;28;20208;-59
2024/01/10 05:22:49;;;;;;;35.97;20.73;;;-4.40;62.70;;;;;;5074360;28;20266;-58
2024/01/10 05:25:18;;;;;;;36.40;20.73;;;-4.40;62.50;;;;;;5074401;28;20687;-59
2024/01/10 05:27:44;;;;;;;34.57;20.87;;;-4.40;62.40;;;;;;5072849;28;20256;-57
2024/01/10 05:30:12;;;;;;;35.33;20.57;;;-4.30;62.30;;;;;;5073726;28;20221;-59
2024/01/10 05:32:39;;;;;;;34.53;20.53;;;-4.30;62.10;;;;;;5074404;28;20216;-58
2024/01/10 05:35:05;;;;;;;37.67;20.53;;;-4.30;62.10;;;;;;5071009;28;20236;-57
2024/01/10 05:37:32;;;;;;;31.57;20.00;;;-4.30;62.00;;;;;;5072250;28;20233;-59
2024/01/10 05:39:59;;;;;;;34.83;20.03;;;-4.70;62.50;;;;;;5073579;28;20284;-59
2024/01/10 05:42:26;;;;;;;35.83;22.03;;;-4.50;63.20;;;;;;5073826;28;20248;-59
2024/01/10 05:44:53;;;;;;;33.13;19.73;;;-4.50;63.10;;;;;;5070374;28;20296;-59
2024/01/10 05:47:19;;;;;;;32.53;20.60;;;-4.40;62.70;;;;;;5070044;28;20216;-59
2024/01/10 05:49:46;;;;;;;32.93;20.00;;;-4.40;62.10;;;;;;5072949;28;20973;-59
2024/01/10 05:52:12;;;;;;;33.43;19.60;;;-4.30;61.90;;;;;;5073464;28;20221;-58
2024/01/10 05:54:39;;;;;;;31.63;19.83;;;-4.40;61.80;;;;;;5073852;28;20558;-58
2024/01/10 05:57:06;;;;;;;31.80;18.27;;;-4.40;61.40;;;;;;5073187;28;20263;-58
2024/01/10 05:59:32;;;;;;;30.07;18.43;;;-4.40;61.40;;;;;;5071533;28;20197;-59
2024/01/10 06:01:59;;;;;;;33.77;19.93;;;-4.40;61.50;;;;;;5068418;28;20660;-59
2024/01/10 06:04:25;;;;;;;28.13;17.70;;;-4.40;61.60;;;;;;5067880;28;20571;-56
2024/01/10 06:06:52;;;;;;;30.67;18.77;;;-4.40;61.70;;;;;;5067625;28;20275;-58
2024/01/10 06:09:21;;;;;;;31.80;19.53;;;-4.50;61.90;;;;;;5072438;28;20221;-58
2024/01/10 06:11:48;;;;;;;30.93;18.53;;;-4.50;62.30;;;;;;5065093;28;20251;-54
2024/01/10 06:14:14;;;;;;;34.37;20.30;;;-4.50;62.40;;;;;;5073340;28;20201;-59
2024/01/10 06:16:41;;;;;;;33.23;19.67;;;-4.60;62.20;;;;;;5073050;28;20299;-59
2024/01/10 06:19:07;;;;;;;33.13;19.43;;;-4.50;62.80;;;;;;5070157;28;20206;-59
2024/01/10 06:21:34;;;;;;;34.07;19.37;;;-4.70;62.60;;;;;;5069458;28;20205;-57
2024/01/10 06:24:00;;;;;;;33.37;19.10;;;-4.80;63.90;;;;;;5072986;28;20615;-59
2024/01/10 06:26:27;;;;;;;32.33;19.20;;;-4.70;63.90;;;;;;5063576;28;20225;-58
2024/01/10 06:28:53;;;;;;;37.03;21.00;;;-4.70;63.90;;;;;;5072508;28;20217;-59
2024/01/10 06:31:20;;;;;;;38.13;21.40;;;-4.70;64.00;;;;;;5072564;28;20205;-59
2024/01/10 06:33:47;;;;;;;36.60;20.47;;;-4.50;64.20;;;;;;5072453;28;20236;-58
2024/01/10 06:36:13;;;;;;;36.73;20.83;;;-4.50;63.30;;;;;;5058037;28;20603;-57
2024/01/10 06:38:40;;;;;;;35.17;19.47;;;-4.50;62.60;;;;;;5068327;28;20247;-57
2024/01/10 06:41:06;;;;;;;36.47;20.53;;;-4.60;63.30;;;;;;5072682;28;20205;-59
2024/01/10 06:43:34;;;;;;;36.43;21.23;;;-4.70;63.10;;;;;;5072719;28;20204;-57
2024/01/10 06:46:01;;;;;;;36.27;19.67;;;-4.70;63.90;;;;;;5070729;28;20224;-59
2024/01/10 06:48:27;;;;;;;35.20;20.80;;;-4.50;63.60;;;;;;5072434;28;20197;-58
2024/01/10 06:50:54;;;;;;;37.63;20.60;;;-4.60;63.10;;;;;;5072590;28;20312;-59
2024/01/10 06:53:20;;;;;;;35.47;20.73;;;-4.50;63.20;;;;;;5065793;28;20232;-58
2024/01/10 06:55:47;;;;;;;35.90;21.03;;;-4.60;63.80;;;;;;5072229;28;20221;-56
2024/01/10 06:58:13;;;;;;;37.90;20.17;;;-4.80;63.80;;;;;;5072136;28;20205;-58
2024/01/10 07:00:40;;;;;;;41.27;21.30;;;-4.80;64.90;;;;;;5072142;28;20217;-57
2024/01/10 07:03:06;;;;;;;38.77;21.37;;;-4.70;64.60;;;;;;5071401;28;20286;-59
2024/01/10 07:05:33;;;;;;;35.60;20.87;;;-4.60;64.10;;;;;;5071740;28;20217;-59
2024/01/10 07:08:02;;;;;;;34.23;20.80;;;-4.60;64.00;;;;;;5071610;28;20201;-59
2024/01/10 07:10:29;;;;;;;38.13;21.60;;;-4.90;64.20;;;;;;5065353;28;20221;-59
2024/01/10 07:12:55;;;;;;;38.00;22.40;;;-4.60;64.00;;;;;;5072263;28;20303;-57
2024/01/10 07:15:22;;;;;;;37.90;21.83;;;-4.60;64.30;;;;;;5072591;28;20233;-60
2024/01/10 07:17:49;;;;;;;36.53;20.73;;;-4.70;64.40;;;;;;5064365;28;20668;-59
2024/01/10 07:20:15;;;;;;;35.63;20.90;;;-4.60;64.00;;;;;;5073552;28;20276;-59
2024/01/10 07:22:43;;;;;;;38.47;20.33;;;-4.70;63.90;;;;;;5073503;28;20644;-56
2024/01/10 07:25:10;;;;;;;36.23;20.10;;;-4.60;64.50;;;;;;5072584;28;20634;-59
2024/01/10 07:27:37;;;;;;;35.13;21.10;;;-4.60;63.70;;;;;;5064542;28;20292;-57
2024/01/10 07:30:04;;;;;;;34.50;19.17;;;-4.50;63.00;;;;;;5071786;28;20260;-59
2024/01/10 07:32:30;;;;;;;35.47;20.60;;;-4.60;62.90;;;;;;5071775;28;20598;-59
2024/01/10 07:34:58;;;;;;;35.67;20.47;;;-4.50;62.60;;;;;;5071880;28;20201;-59
2024/01/10 07:37:24;;;;;;;33.30;20.80;;;-4.50;62.30;;;;;;5071727;28;20200;-58
2024/01/10 07:39:50;;;;;;;35.43;21.73;;;-4.50;63.10;;;;;;5071531;28;20277;-59
2024/01/10 07:42:18;;;;;;;41.13;21.13;;;-4.50;63.80;;;;;;5070836;28;20201;-59
2024/01/10 07:44:44;;;;;;;40.53;21.63;;;-4.40;63.10;;;;;;5070833;28;20224;-59
2024/01/10 07:47:11;;;;;;;35.03;20.60;;;-4.70;63.90;;;;;;5071179;28;20205;-59
2024/01/10 07:49:38;;;;;;;39.97;21.43;;;-4.70;64.60;;;;;;5069788;28;20312;-59
2024/01/10 07:52:05;;;;;;;38.53;21.07;;;-4.70;64.00;;;;;;5070278;28;20235;-60
2024/01/10 07:54:32;;;;;;;38.20;21.43;;;-4.80;63.80;;;;;;5070978;28;20201;-59
2024/01/10 07:56:59;;;;;;;38.73;21.10;;;-4.60;64.00;;;;;;5071608;28;20630;-59
2024/01/10 07:59:25;;;;;;;36.63;20.13;;;-4.50;64.00;;;;;;5071398;28;20197;-59
2024/01/10 08:01:52;;;;;;;39.40;21.20;;;-4.30;62.70;;;;;;5064473;28;20216;-59
2024/01/10 08:04:18;;;;;;;32.10;19.47;;;-4.30;62.20;;;;;;5071283;28;20197;-59
2024/01/10 08:06:44;;;;;;;36.93;20.67;;;-4.30;62.10;;;;;;5071492;28;20220;-59
2024/01/10 08:09:10;;;;;;;38.63;22.20;;;-4.60;62.00;;;;;;5071065;28;20200;-59
2024/01/10 08:11:37;;;;;;;37.60;20.67;;;-4.60;63.20;;;;;;5070586;28;20239;-59
2024/01/10 08:14:03;;;;;;;33.70;20.17;;;-4.50;61.60;;;;;;5070789;28;20204;-56
2024/01/10 08:16:30;;;;;;;37.13;20.93;;;-4.50;63.10;;;;;;5070516;28;20221;-59
2024/01/10 08:18:57;;;;;;;39.47;21.53;;;-4.60;62.50;;;;;;5063219;28;20197;-59
2024/01/10 08:21:25;;;;;;;36.83;20.33;;;-4.40;62.70;;;;;;5069503;28;20201;-60
2024/01/10 08:23:53;;;;;;;39.90;19.73;;;-4.50;61.80;;;;;;5069691;28;20197;-57
2024/01/10 08:26:20;;;;;;;36.90;20.67;;;-4.60;62.30;;;;;;5070778;28;20271;-59
2024/01/10 08:28:47;;;;;;;40.57;22.73;;;-4.60;61.90;;;;;;5070918;28;20229;-59
2024/01/10 08:31:13;;;;;;;33.83;19.17;;;-4.60;60.10;;;;;;5065592;28;20282;-57
2024/01/10 08:33:40;;;;;;;38.27;22.07;;;-4.50;60.60;;;;;;5068491;28;20623;-59
2024/01/10 08:36:06;;;;;;;41.90;22.43;;;-4.50;60.90;;;;;;5062250;28;20228;-57
2024/01/10 08:38:33;;;;;;;37.47;21.57;;;-4.40;59.80;;;;;;5064546;28;20214;-59
2024/01/10 08:40:59;;;;;;;37.40;21.60;;;-4.40;58.90;;;;;;5069866;28;20202;-59
2024/01/10 08:43:26;;;;;;;38.67;22.00;;;-4.00;59.10;;;;;;5062724;28;20258;-55
2024/01/10 08:45:52;;;;;;;36.17;21.10;;;-4.00;56.20;;;;;;5063997;28;20229;-59
2024/01/10 08:48:19;;;;;;;39.63;22.73;;;-4.10;58.00;;;;;;5068672;28;20205;-62
2024/01/10 08:50:45;;;;;;;38.27;22.60;;;-3.70;58.20;;;;;;5072640;28;20228;-58
2024/01/10 08:53:12;;;;;;;36.10;21.30;;;-3.40;57.20;;;;;;5069415;28;20201;-58
2024/01/10 08:55:38;;;;;;;38.17;21.90;;;-3.20;55.50;;;;;;5073645;28;20225;-59
2024/01/10 08:58:05;;;;;;;40.13;23.87;;;-3.60;55.90;;;;;;5071719;28;20200;-57
2024/01/10 09:00:32;;;;;;;40.63;23.87;;;-3.80;56.00;;;;;;5073229;28;20262;-56
2024/01/10 09:02:59;;;;;;;36.83;23.23;;;-3.60;56.20;;;;;;5073403;28;20700;-57
2024/01/10 09:05:25;;;;;;;39.13;23.13;;;-3.60;55.10;;;;;;5070207;28;20225;-58
2024/01/10 09:07:53;;;;;;;39.33;22.93;;;-3.50;55.90;;;;;;5070373;28;20201;-54
2024/01/10 09:10:21;;;;;;;39.60;23.73;;;-3.20;54.60;;;;;;5067139;28;20236;-58
2024/01/10 09:12:47;;;;;;;40.90;21.37;;;-2.90;53.60;;;;;;5071610;28;20262;-57
2024/01/10 09:15:14;;;;;;;38.83;22.67;;;-3.20;53.20;;;;;;5050367;28;20277;-59
2024/01/10 09:17:40;;;;;;;38.27;22.27;;;-2.90;54.00;;;;;;5057601;28;20233;-58
2024/01/10 09:20:08;;;;;;;38.17;21.87;;;-3.10;54.20;;;;;;5059983;28;20197;-58
2024/01/10 09:22:34;;;;;;;36.13;20.80;;;-2.50;53.30;;;;;;5072002;28;20579;-60
2024/01/10 09:25:04;;;;;;;35.40;20.87;;;-2.50;52.40;;;;;;5065399;28;20225;-65
2024/01/10 09:27:30;;;;;;;37.70;21.23;;;-1.90;51.60;;;;;;5057917;28;20245;-56
2024/01/10 09:29:57;;;;;;;38.30;22.20;;;-2.00;51.00;;;;;;5059107;28;20320;-59
2024/01/10 09:32:23;;;;;;;37.37;22.13;;;-2.10;51.70;;;;;;5062729;28;20268;-59
2024/01/10 09:34:50;;;;;;;39.33;23.97;;;-1.40;50.70;;;;;;5067300;28;20259;-59
2024/01/10 09:37:16;;;;;;;42.97;23.90;;;-1.30;48.70;;;;;;5065626;28;20258;-61
2024/01/10 09:39:43;;;;;;;43.53;24.97;;;-1.60;49.30;;;;;;5067481;28;22009;-60
2024/01/10 09:42:10;;;;;;;38.93;23.47;;;-1.40;49.40;;;;;;5069152;28;20294;-60
2024/01/10 09:44:36;;;;;;;41.30;23.97;;;-1.30;48.10;;;;;;5070150;28;20213;-59
2024/01/10 09:47:03;;;;;;;38.23;23.80;;;-1.30;47.90;;;;;;5063590;28;20221;-59
2024/01/10 09:49:29;;;;;;;37.40;22.30;;;-1.70;48.60;;;;;;5064930;28;20280;-60
2024/01/10 09:51:56;;;;;;;41.77;23.93;;;-1.80;49.10;;;;;;5072782;28;20222;-58
2024/01/10 09:54:22;;;;;;;45.73;25.73;;;-2.00;49.30;;;;;;5058727;28;20209;-62
2024/01/10 09:56:49;;;;;;;38.53;23.07;;;-1.60;50.10;;;;;;5063871;28;20281;-59
2024/01/10 09:59:15;;;;;;;38.57;22.40;;;-1.90;49.50;;;;;;5072341;28;20208;-60
2024/01/10 10:01:42;;;;;;;43.07;25.73;;;-1.70;49.20;;;;;;5066599;28;20632;-60
2024/01/10 10:04:09;;;;;;;35.63;21.53;;;-1.40;49.40;;;;;;5076599;28;20337;-61
2024/01/10 10:06:36;;;;;;;43.30;24.63;;;-1.30;48.80;;;;;;5066994;28;20228;-59
2024/01/10 10:09:02;;;;;;;40.63;23.97;;;-1.00;48.30;;;;;;5069973;28;20262;-60
2024/01/10 10:11:29;;;;;;;39.50;23.77;;;-0.60;47.10;;;;;;5074527;28;20224;-61
2024/01/10 10:13:55;;;;;;;39.87;23.20;;;-0.50;46.30;;;;;;5070319;28;20205;-63
2024/01/10 10:16:22;;;;;;;40.40;24.73;;;-0.70;46.20;;;;;;5069977;28;20236;-62
2024/01/10 10:18:48;;;;;;;36.33;23.20;;;-0.80;47.10;;;;;;5064422;28;20266;-61
2024/01/10 10:21:16;;;;;;;40.30;24.20;;;-0.40;46.90;;;;;;5070170;28;20208;-59
2024/01/10 10:23:43;;;;;;;39.90;24.73;;;-0.20;46.00;;;;;;5065242;28;20212;-61
2024/01/10 10:26:09;;;;;;;37.20;23.00;;;-0.20;45.70;;;;;;5063058;28;20696;-60
2024/01/10 10:28:36;;;;;;;36.30;22.27;;;-0.10;45.40;;;;;;5070661;28;20205;-60
2024/01/10 10:31:02;;;;;;;39.57;23.90;;;0.00;45.70;;;;;;5065566;28;20431;-59
2024/01/10 10:33:29;;;;;;;40.07;24.40;;;0.10;45.40;;;;;;5069366;28;20679;-59
2024/01/10 10:35:55;;;;;;;40.83;24.33;;;0.50;45.00;;;;;;5066832;28;20239;-61
2024/01/10 10:38:22;;;;;;;36.67;23.07;;;0.40;44.70;;;;;;5060521;28;20202;-60
2024/01/10 10:40:48;;;;;;;37.33;22.47;;;0.30;44.60;;;;;;5064193;28;20254;-60
2024/01/10 10:43:15;;;;;;;40.13;23.20;;;0.60;45.00;;;;;;5072390;28;20217;-60
2024/01/10 10:45:42;;;;;;;40.23;26.07;;;0.50;43.60;;;;;;5063236;28;20271;-60
2024/01/10 10:48:09;;;;;;;35.67;23.73;;;0.60;43.40;;;;;;5071747;28;20217;-60
2024/01/10 10:50:36;;;;;;;39.93;23.53;;;0.80;44.00;;;;;;5063195;28;20343;-60
2024/01/10 10:53:03;;;;;;;41.67;26.63;;;1.00;43.50;;;;;;5072178;28;20264;-60
2024/01/10 10:55:32;;;;;;;36.63;23.00;;;0.80;43.00;;;;;;5062502;28;20231;-60
2024/01/10 10:57:59;;;;;;;37.57;23.63;;;1.00;43.80;;;;;;5065844;28;20708;-61
2024/01/10 11:00:27;;;;;;;34.90;22.93;;;1.30;43.40;;;;;;5072261;28;20245;-60
2024/01/10 11:02:53;;;;;;;41.23;26.33;;;1.20;43.40;;;;;;5072621;28;20635;-60
2024/01/10 11:05:20;;;;;;;37.03;24.60;;;1.00;43.30;;;;;;5072331;28;20231;-59
2024/01/10 11:07:46;;;;;;;38.77;23.93;;;0.90;43.80;;;;;;5070715;28;20218;-60
2024/01/10 11:10:13;;;;;;;36.53;23.83;;;1.10;43.70;;;;;;5065696;28;20280;-60
2024/01/10 11:12:40;;;;;;;40.33;24.97;;;0.50;43.20;;;;;;5061961;28;20203;-60
2024/01/10 11:15:09;;;;;;;41.03;24.73;;;0.90;44.70;;;;;;5071763;28;20230;-60
2024/01/10 11:17:35;;;;;;;44.10;24.60;;;1.50;42.60;;;;;;5060141;28;20209;-60
2024/01/10 11:20:03;;;;;;;37.80;25.63;;;0.90;44.40;;;;;;5070521;28;20269;-60
2024/01/10 11:22:30;;;;;;;37.30;23.73;;;1.00;44.20;;;;;;5066599;28;20232;-60
2024/01/10 11:24:57;;;;;;;40.33;22.97;;;0.80;44.00;;;;;;5064362;28;20675;-59
2024/01/10 11:27:23;;;;;;;39.27;24.43;;;1.10;44.40;;;;;;5071530;28;20228;-60
2024/01/10 11:29:50;;;;;;;40.90;25.27;;;0.50;44.10;;;;;;5071322;28;20215;-60
2024/01/10 11:32:16;;;;;;;40.20;23.83;;;0.80;44.60;;;;;;5071596;28;20713;-60
2024/01/10 11:34:43;;;;;;;41.50;24.40;;;0.60;44.30;;;;;;5063319;28;20243;-60
2024/01/10 11:37:09;;;;;;;38.93;23.87;;;1.00;44.40;;;;;;5066119;28;20637;-60
2024/01/10 11:39:36;;;;;;;38.03;23.53;;;0.90;43.90;;;;;;5065786;28;20213;-64
2024/01/10 11:42:03;;;;;;;38.77;24.27;;;0.70;44.70;;;;;;5070359;28;20601;-58
2024/01/10 11:44:29;;;;;;;38.73;24.90;;;0.70;44.60;;;;;;5068190;28;20210;-60
2024/01/10 11:46:56;;;;;;;38.97;24.83;;;0.60;44.70;;;;;;5061555;28;20711;-58
2024/01/10 11:49:22;;;;;;;39.77;25.23;;;0.60;45.70;;;;;;5064402;28;20350;-58
2024/01/10 11:51:49;;;;;;;37.73;24.53;;;0.40;45.60;;;;;;5058408;28;20308;-58
2024/01/10 11:54:16;;;;;;;36.07;24.47;;;0.30;46.50;;;;;;5059572;28;20279;-60
2024/01/10 11:56:42;;;;;;;38.00;23.90;;;0.40;46.50;;;;;;5062252;28;20228;-60
2024/01/10 11:59:10;;;;;;;38.17;24.07;;;0.00;47.30;;;;;;5068831;28;20623;-59
2024/01/10 12:01:36;;;;;;;39.57;24.60;;;0.00;47.40;;;;;;5060477;28;20204;-60
2024/01/10 12:04:03;;;;;;;40.60;23.63;;;0.20;46.80;;;;;;5068536;28;20366;-59
2024/01/10 12:06:30;;;;;;;43.30;25.03;;;0.40;46.70;;;;;;5054704;28;20247;-59
2024/01/10 12:08:56;;;;;;;40.87;24.60;;;0.40;46.50;;;;;;5061151;28;20275;-60
2024/01/10 12:11:23;;;;;;;39.80;25.80;;;0.00;47.10;;;;;;5069571;28;20279;-60
2024/01/10 12:13:49;;;;;;;40.67;24.60;;;0.00;47.80;;;;;;5061677;28;20258;-60
2024/01/10 12:16:17;;;;;;;41.77;24.80;;;-0.10;48.10;;;;;;5059074;28;20230;-60
2024/01/10 12:18:43;;;;;;;42.50;24.50;;;-0.50;48.40;;;;;;5057610;28;20277;-59
2024/01/10 12:21:10;;;;;;;40.17;24.87;;;-0.60;49.90;;;;;;5066309;28;20206;-61
2024/01/10 12:23:37;;;;;;;42.30;24.63;;;-0.80;49.90;;;;;;5060357;28;20670;-60